Oxelosund, Sweden
Current Conditions -  °F | °C
As of 12:50 AM on Sunday 21 Dec 2014 (Local Time) from ESKN Reporting Station
Clear Clear  
Wind Chill: -7°   Ceiling: Unl
Heat Index: -2°   Visibility: 6mi
Dew Point: -4°   Wind: 9mph
Humidity: 86%   Direction: 300°WNW
Pressure: 29.5"   Gusts: NA
Location:  58.67°N, 17.1°E
Report Text: ESKN 202350Z 30008KT CAVOK M02/M04 Q0999 R26/710195
Loading
Personal Weather Stations






























Interactive Weather Map New forecast layout! Learn more

10-Day Weather Forecast

Advertisements
Track Severe Weather on mobile